Disclaimer

Please do not use the information listed here in-flight or in-navigation, as they are not provided to us by the airports but are provided by volunteers, so they might be outdated.

Search


Regions


Airport information page

Radio informations:
ASUNCION TWR - 118.1 MHz
ASUNCION RDO - 126.9 MHz
Ground (GND) - 121.9 MHz
ASUNCION APP - 119.7 MHz

Airport informations:
Latitude: 25° 14' 23.46" S
Longitude: 057° 31' 08.88" W
Elevation: 292 feet - 89 meters
Operating hours: N/A
Operating agency: Military-civil joint use airport
Timezone: UTC-4(-3DT)
Fuel: Jet A1, without icing nhibitor.

100/130 MIL Spec, low lead, aviation gasoline (BLUE)

Runway information:
02/20 - 11001 x 151 feet< - >3353 x 46 meters

Recent METARs:
SGAS 210400Z 06004KT 030V090 CAVOK 25/20 Q1013
SGAS 210700Z 00000KT CAVOK 21/20 Q1012
SGAS 210700Z 00000KT CAVOK 21/20 Q1012

Airport on the map: